Impacts METAR Board
IDs:

KCLE - Cleveland/Hopkins In, OH, US

Updated at: 1300 UTC 25 Jun 2019
Potential Impact None Slight Moderate High
Time 25/01Z 25/02Z 25/03Z 25/04Z 25/05Z 25/06Z 25/07Z 25/08Z 25/09Z 25/10Z 25/11Z 25/12Z 25/13Z
Temp72 71 71 70 70 69 68 68 68 67 67 69 72
Dewpt70 69 68 68 67 66 66 65 64 63 62 63 63
Altim29.71 29.72 29.73 29.74 29.75 29.76 29.77 29.79 29.81 29.83 29.86 29.88 29.89
VIS5 10 10 10 10 10 10 10 10 10 10 10 10
CIG75 10 65 250 250 -- -- -- -- -- -- -- --
CoverOVCOVCBKNBKNBKNSCTSCTFEWSCTFEWFEWFEWFEW
FltCatMVFRMVFRVFRVFRVFRVFRVFRVFRVFRVFRVFRVFRVFR
WXRA BR------------------------
WDir220230220230210210220210230230230230240
WSpd8 6 6 7 7 9 10 10 9 7 7 9 9
WGst-- -- -- -- -- -- -- -- -- -- -- -- --
Raw hourly METARs
KCLE 250051Z 22008KT 5SM RA BR FEW009 BKN075 OVC110 22/21 A2971 RMK AO2 SLP056 P0056 T02220211 $
KCLE 250151Z 23006KT 10SM BKN010 OVC080 22/21 A2972 RMK AO2 RAE37 SLP058 P0011 T02170206 $
KCLE 250251Z 22006KT 10SM SCT024 SCT050 BKN065 22/20 A2973 RMK AO2 SLP062 60067 T02170200 50007 $
KCLE 250351Z 23007KT 10SM FEW008 FEW065 BKN250 21/20 A2974 RMK AO2 SLP064 T02110200 $
KCLE 250451Z 21007KT 10SM FEW065 BKN250 21/19 A2975 RMK AO2 SLP068 T02110194 402940211 $
KCLE 250551Z 21009KT 10SM SCT250 21/19 A2976 RMK AO2 SLP071 60067 T02060189 10239 20206 53009 $
KCLE 250651Z 22010KT 10SM FEW080 SCT250 20/19 A2977 RMK AO2 SLP074 T02000189 $
KCLE 250751Z 21010KT 10SM FEW250 20/18 A2979 RMK AO2 SLP082 T02000183 $
KCLE 250851Z 23009KT 10SM FEW075 SCT250 20/18 A2981 RMK AO2 SLP089 T02000178 53017 $
KCLE 250951Z 23007KT 10SM FEW075 FEW250 19/17 A2983 RMK AO2 SLP097 T01940172 $
KCLE 251051Z 23007KT 10SM FEW250 19/17 A2986 RMK AO2 SLP105 T01940167 $
KCLE 251151Z 23009KT 10SM FEW250 21/17 A2988 RMK AO2 SLP112 70069 T02060172 10206 20189 51021 $
KCLE 251251Z 24009KT 10SM FEW250 22/17 A2989 RMK AO2 SLP118 T02220172 $



Page loaded:  13:57 UTC  |   06:57 AM Pacific  |   07:57 AM Mountain  |   08:57 AM Central  |   09:57 AM Eastern

 

ADVISORIES

FORECASTS

FORECASTS

OBSERVATIONS

USER TOOLS

ABOUT US